Andrew Cargill Macmillan — WDB9869 — position and weather

sailwx.info

Track history (hours):
 
Tides and Currents Weather Stations Pressure Air Temp Water Temp Dewpoint Dewpoint Depression Visibility Wind Speed Wind Dir Waves Ship Positions

Andrew Cargill Macmillan

Owner: American River Transportation Company, St Louis, MO. More information available from US FCC via Universal Licensing System and Coast Guard Vessel Documentation Center.

Last reported at 2018-Feb-24 00:17 UTC. Time now 2018-Feb-24 13:53 UTC.
Position N 32°44' W 091°05'.

Length 58 m; draft 3.7 m.

Type: Ship (hazmat cat B). MMSI: 366984240.

Date/timePositionNaut miles runAvg speedWind from/ knotsBaromVisibWave heightAir tempDewpointWater temp
2018-Feb-24 00:17N 32°44' W 091°05'1 4.0
2018-Feb-24 00:00N 32°44' W 091°04'5 2.8
2018-Feb-23 22:04N 32°40' W 091°08'1 4.2
2018-Feb-23 21:55N 32°39' W 091°08'2 3.9
2018-Feb-23 21:30N 32°38' W 091°09'1 1.4
2018-Feb-23 21:00N 32°37' W 091°09'1 1.2
2018-Feb-23 20:30N 32°37' W 091°09'2 3.1
2018-Feb-23 20:00N 32°35' W 091°08'2 3.2
2018-Feb-23 19:30N 32°34' W 091°07'2 3.2
2018-Feb-23 19:00N 32°33' W 091°06'2 3.9
2018-Feb-23 18:30N 32°31' W 091°06'2 3.4
2018-Feb-23 18:00N 32°29' W 091°07'2 3.1
2018-Feb-23 17:30N 32°28' W 091°06'2 4.4
2018-Feb-23 17:00N 32°27' W 091°04'2 4.8
2018-Feb-23 16:30N 32°26' W 091°01'2 4.2
2018-Feb-23 16:00N 32°24' W 090°60'2 4.2
2018-Feb-23 15:30N 32°22' W 091°00'2 3.3
2018-Feb-23 15:00N 32°21' W 090°59'2 3.1
2018-Feb-23 14:30N 32°21' W 090°57'2 4.1
2018-Feb-23 14:00N 32°20' W 090°55'2 3.0
2018-Feb-23 13:30N 32°19' W 090°55'2 3.6
2018-Feb-23 13:00N 32°17' W 090°56'2 3.5
2018-Feb-23 12:30N 32°16' W 090°58'2 4.0
2018-Feb-23 12:00N 32°14' W 090°59'2 4.1
2018-Feb-23 11:30N 32°12' W 090°59'2 3.9
2018-Feb-23 11:00N 32°10' W 090°60'2 3.7
2018-Feb-23 10:30N 32°09' W 091°00'2 3.6
2018-Feb-23 10:00N 32°07' W 091°02'2 3.1
2018-Feb-23 09:30N 32°08' W 091°03'2 4.3
2018-Feb-23 09:00N 32°08' W 091°06'2 3.2
2018-Feb-23 08:30N 32°07' W 091°06'3 5.1
2018-Feb-23 07:53N 32°04' W 091°04'2 4.1
2018-Feb-23 07:30N 32°03' W 091°04'8 3.9
2018-Feb-23 05:22N 31°57' W 091°11'  
2018-Feb-18 12:46N 31°57' W 091°12'5 7.1
2018-Feb-18 12:03N 31°59' W 091°06'0 7.6
2018-Feb-18 12:00N 31°59' W 091°06'4 8.7
2018-Feb-18 11:30N 32°03' W 091°03'4 8.5
2018-Feb-18 11:00N 32°07' W 091°06'2 4.0
2018-Feb-18 10:30N 32°08' W 091°04'4 7.3
2018-Feb-18 10:00N 32°09' W 091°00'5 9.2
2018-Feb-18 09:30N 32°13' W 090°59'4 8.0
2018-Feb-18 09:00N 32°17' W 090°57'4 7.9
2018-Feb-18 08:30N 32°20' W 090°54'4 7.3
2018-Feb-18 08:00N 32°21' W 090°58'3 6.4
2018-Feb-18 07:30N 32°24' W 090°59'4 7.5
2018-Feb-18 07:00N 32°26' W 091°03'4 8.1
2018-Feb-18 06:29N 32°29' W 091°07'4 8.8
2018-Feb-18 06:00N 32°33' W 091°06'5 8.2
2018-Feb-18 05:27N 32°37' W 091°09'  
Track history (hours):
 
Tides and Currents Weather Stations Pressure Air Temp Water Temp Dewpoint Dewpoint Depression Visibility Wind Speed Wind Dir Waves Ship Positions

Andrew Cargill Macmillan

Owner: American River Transportation Company, St Louis, MO. More information available from US FCC via Universal Licensing System and Coast Guard Vessel Documentation Center.

Last reported at 2018-Feb-24 00:17 UTC. Time now 2018-Feb-24 13:53 UTC.
Position N 32°44' W 091°05'.

Length 58 m; draft 3.7 m.

Type: Ship (hazmat cat B). MMSI: 366984240.

Date/timePositionNaut miles runAvg speedWind from/ knotsBaromVisibWave heightAir tempDewpointWater temp
2018-Feb-24 00:17N 32°44' W 091°05'1 4.0
2018-Feb-24 00:00N 32°44' W 091°04'5 2.8
2018-Feb-23 22:04N 32°40' W 091°08'1 4.2
2018-Feb-23 21:55N 32°39' W 091°08'2 3.9
2018-Feb-23 21:30N 32°38' W 091°09'1 1.4
2018-Feb-23 21:00N 32°37' W 091°09'1 1.2
2018-Feb-23 20:30N 32°37' W 091°09'2 3.1
2018-Feb-23 20:00N 32°35' W 091°08'2 3.2
2018-Feb-23 19:30N 32°34' W 091°07'2 3.2
2018-Feb-23 19:00N 32°33' W 091°06'2 3.9
2018-Feb-23 18:30N 32°31' W 091°06'2 3.4
2018-Feb-23 18:00N 32°29' W 091°07'2 3.1
2018-Feb-23 17:30N 32°28' W 091°06'2 4.4
2018-Feb-23 17:00N 32°27' W 091°04'2 4.8
2018-Feb-23 16:30N 32°26' W 091°01'2 4.2
2018-Feb-23 16:00N 32°24' W 090°60'2 4.2
2018-Feb-23 15:30N 32°22' W 091°00'2 3.3
2018-Feb-23 15:00N 32°21' W 090°59'2 3.1
2018-Feb-23 14:30N 32°21' W 090°57'2 4.1
2018-Feb-23 14:00N 32°20' W 090°55'2 3.0
2018-Feb-23 13:30N 32°19' W 090°55'2 3.6
2018-Feb-23 13:00N 32°17' W 090°56'2 3.5
2018-Feb-23 12:30N 32°16' W 090°58'2 4.0
2018-Feb-23 12:00N 32°14' W 090°59'2 4.1
2018-Feb-23 11:30N 32°12' W 090°59'2 3.9
2018-Feb-23 11:00N 32°10' W 090°60'2 3.7
2018-Feb-23 10:30N 32°09' W 091°00'2 3.6
2018-Feb-23 10:00N 32°07' W 091°02'2 3.1
2018-Feb-23 09:30N 32°08' W 091°03'2 4.3
2018-Feb-23 09:00N 32°08' W 091°06'2 3.2
2018-Feb-23 08:30N 32°07' W 091°06'3 5.1
2018-Feb-23 07:53N 32°04' W 091°04'2 4.1
2018-Feb-23 07:30N 32°03' W 091°04'8 3.9
2018-Feb-23 05:22N 31°57' W 091°11'  
2018-Feb-18 12:46N 31°57' W 091°12'5 7.1
2018-Feb-18 12:03N 31°59' W 091°06'0 7.6
2018-Feb-18 12:00N 31°59' W 091°06'4 8.7
2018-Feb-18 11:30N 32°03' W 091°03'4 8.5
2018-Feb-18 11:00N 32°07' W 091°06'2 4.0
2018-Feb-18 10:30N 32°08' W 091°04'4 7.3
2018-Feb-18 10:00N 32°09' W 091°00'5 9.2
2018-Feb-18 09:30N 32°13' W 090°59'4 8.0
2018-Feb-18 09:00N 32°17' W 090°57'4 7.9
2018-Feb-18 08:30N 32°20' W 090°54'4 7.3
2018-Feb-18 08:00N 32°21' W 090°58'3 6.4
2018-Feb-18 07:30N 32°24' W 090°59'4 7.5
2018-Feb-18 07:00N 32°26' W 091°03'4 8.1
2018-Feb-18 06:29N 32°29' W 091°07'4 8.8
2018-Feb-18 06:00N 32°33' W 091°06'5 8.2
2018-Feb-18 05:27N 32°37' W 091°09'  

Dump ship's entire track history